KMEV/MEV METAR and TAF weather

Enter ICAO airport designator
Station Type Date Time Source
KMEV METAR 2019/09/28 16:35 UTC NOAA

KMEV 281635Z AUTO 17011G21KT 10SM CLR 17/M05 A2966 RMK AO2


Station Type Date Time Source
KMEV Decoded METAR 2019/09/28 16:35 UTC NOAA

Station name not available
Sep 28, 2019 - 12:35 PM EDT / 2019.09.28 1635 UTC
Wind: from the S (170 degrees) at 13 MPH (11 KT) gusting to 24 MPH (21 KT):0
Visibility: 10 mile(s):0
Sky conditions: clear
Temperature: 62 F (17 C)
Dew Point: 23 F (-5 C)
Relative Humidity: 21%
Pressure (altimeter): 29.66 in. Hg (1004 hPa)
ob: KMEV 281635Z AUTO 17011G21KT 10SM CLR 17/M05 A2966 RMK AO2
cycle: 16

Station Type Date Time Source
KMEV TAF 2019/10/16 12:21 UTC NOAA

TAF KMEV 161120Z 1612/1712 10003KT P6SM FEW200
FM161900 24014G24KT P6SM SCT200
FM170200 25009KT P6SM SCT140 BKN200
AMD NOT SKED

Example: see airport list